sensor_id;sensor_type;location;lat;lon;timestamp;pressure;altitude;pressure_sealevel;temperature;humidity
56400;BME280;42298;53.638;9.876;2024-02-26T00:01:25;101017.28;;;4.65;100.00
56400;BME280;42298;53.638;9.876;2024-02-26T00:03:50;101021.69;;;4.65;100.00
56400;BME280;42298;53.638;9.876;2024-02-26T00:06:17;101020.28;;;4.61;100.00
56400;BME280;42298;53.638;9.876;2024-02-26T00:08:43;101022.19;;;4.59;100.00
56400;BME280;42298;53.638;9.876;2024-02-26T00:11:08;101012.91;;;4.53;100.00
56400;BME280;42298;53.638;9.876;2024-02-26T00:13:33;100989.38;;;4.39;100.00
56400;BME280;42298;53.638;9.876;2024-02-26T00:15:59;101000.53;;;4.42;100.00
56400;BME280;42298;53.638;9.876;2024-02-26T00:18:24;101006.78;;;4.41;100.00
56400;BME280;42298;53.638;9.876;2024-02-26T00:20:50;100993.31;;;4.33;100.00
56400;BME280;42298;53.638;9.876;2024-02-26T00:23:15;100985.69;;;4.17;100.00
56400;BME280;42298;53.638;9.876;2024-02-26T00:25:41;100978.97;;;4.13;100.00
56400;BME280;42298;53.638;9.876;2024-02-26T00:28:08;100977.50;;;4.09;100.00
56400;BME280;42298;53.638;9.876;2024-02-26T00:30:34;100969.94;;;4.04;100.00
56400;BME280;42298;53.638;9.876;2024-02-26T00:32:59;100969.94;;;4.04;100.00
56400;BME280;42298;53.638;9.876;2024-02-26T00:35:24;100977.00;;;4.04;100.00
56400;BME280;42298;53.638;9.876;2024-02-26T00:37:49;100972.66;;;4.03;100.00
56400;BME280;42298;53.638;9.876;2024-02-26T00:40:15;100966.06;;;3.97;100.00
56400;BME280;42298;53.638;9.876;2024-02-26T00:42:40;100962.69;;;3.95;100.00
56400;BME280;42298;53.638;9.876;2024-02-26T00:45:14;100947.56;;;3.86;100.00
56400;BME280;42298;53.638;9.876;2024-02-26T00:47:39;100942.84;;;3.78;100.00
56400;BME280;42298;53.638;9.876;2024-02-26T00:50:06;100956.34;;;3.73;100.00
56400;BME280;42298;53.638;9.876;2024-02-26T00:52:32;100936.63;;;3.55;100.00
56400;BME280;42298;53.638;9.876;2024-02-26T00:54:57;100932.53;;;3.38;100.00
56400;BME280;42298;53.638;9.876;2024-02-26T00:57:23;100940.25;;;3.41;100.00
56400;BME280;42298;53.638;9.876;2024-02-26T00:59:48;100938.34;;;3.43;100.00
56400;BME280;42298;53.638;9.876;2024-02-26T01:02:13;100944.44;;;3.44;100.00
56400;BME280;42298;53.638;9.876;2024-02-26T01:04:39;100940.44;;;3.38;100.00
56400;BME280;42298;53.638;9.876;2024-02-26T01:07:04;100947.41;;;3.39;100.00
56400;BME280;42298;53.638;9.876;2024-02-26T01:09:30;100939.78;;;3.47;100.00
56400;BME280;42298;53.638;9.876;2024-02-26T01:11:56;100947.59;;;3.49;100.00
56400;BME280;42298;53.638;9.876;2024-02-26T01:14:21;100938.13;;;3.46;100.00
56400;BME280;42298;53.638;9.876;2024-02-26T01:16:46;100942.41;;;3.47;100.00
56400;BME280;42298;53.638;9.876;2024-02-26T01:19:12;100933.91;;;3.44;100.00
56400;BME280;42298;53.638;9.876;2024-02-26T01:21:37;100950.22;;;3.49;100.00
56400;BME280;42298;53.638;9.876;2024-02-26T01:24:03;100945.19;;;3.46;100.00
56400;BME280;42298;53.638;9.876;2024-02-26T01:26:28;100967.25;;;3.56;100.00
56400;BME280;42298;53.638;9.876;2024-02-26T01:28:53;100955.47;;;3.49;100.00
56400;BME280;42298;53.638;9.876;2024-02-26T01:31:20;100944.38;;;3.33;100.00
56400;BME280;42298;53.638;9.876;2024-02-26T01:33:46;100942.41;;;3.23;100.00
56400;BME280;42298;53.638;9.876;2024-02-26T01:36:11;100927.22;;;3.14;100.00
56400;BME280;42298;53.638;9.876;2024-02-26T01:38:36;100930.09;;;3.11;100.00
56400;BME280;42298;53.638;9.876;2024-02-26T01:41:02;100929.34;;;3.09;100.00
56400;BME280;42298;53.638;9.876;2024-02-26T01:43:27;100932.22;;;3.06;100.00
56400;BME280;42298;53.638;9.876;2024-02-26T01:45:53;100939.44;;;3.15;100.00
56400;BME280;42298;53.638;9.876;2024-02-26T01:48:19;100943.25;;;3.11;100.00
56400;BME280;42298;53.638;9.876;2024-02-26T01:50:44;100948.50;;;3.11;100.00
56400;BME280;42298;53.638;9.876;2024-02-26T01:53:10;100938.94;;;3.10;100.00
56400;BME280;42298;53.638;9.876;2024-02-26T01:55:36;100960.50;;;3.15;100.00
56400;BME280;42298;53.638;9.876;2024-02-26T01:58:02;100950.50;;;3.07;100.00
56400;BME280;42298;53.638;9.876;2024-02-26T02:00:27;100958.19;;;3.10;100.00
56400;BME280;42298;53.638;9.876;2024-02-26T02:02:54;100958.19;;;3.10;100.00
56400;BME280;42298;53.638;9.876;2024-02-26T02:05:20;100960.50;;;3.15;100.00
56400;BME280;42298;53.638;9.876;2024-02-26T02:07:46;100961.44;;;3.14;100.00
56400;BME280;42298;53.638;9.876;2024-02-26T02:10:14;100960.69;;;3.12;100.00
56400;BME280;42298;53.638;9.876;2024-02-26T02:12:40;100957.25;;;3.11;100.00
56400;BME280;42298;53.638;9.876;2024-02-26T02:15:06;100959.03;;;3.11;100.00
56400;BME280;42298;53.638;9.876;2024-02-26T02:17:32;100961.47;;;3.01;100.00
56400;BME280;42298;53.638;9.876;2024-02-26T02:19:57;100952.31;;;2.94;100.00
56400;BME280;42298;53.638;9.876;2024-02-26T02:22:22;100953.03;;;2.96;100.00
56400;BME280;42298;53.638;9.876;2024-02-26T02:24:52;100945.88;;;2.98;100.00
56400;BME280;42298;53.638;9.876;2024-02-26T02:27:18;100954.09;;;3.06;100.00
56400;BME280;42298;53.638;9.876;2024-02-26T02:29:44;100946.63;;;3.00;100.00
56400;BME280;42298;53.638;9.876;2024-02-26T02:32:10;100946.22;;;2.94;100.00
56400;BME280;42298;53.638;9.876;2024-02-26T02:34:35;100946.63;;;2.87;100.00
56400;BME280;42298;53.638;9.876;2024-02-26T02:37:01;100933.91;;;2.81;100.00
56400;BME280;42298;53.638;9.876;2024-02-26T02:39:26;100925.59;;;2.75;100.00
56400;BME280;42298;53.638;9.876;2024-02-26T02:41:51;100941.38;;;2.75;100.00
56400;BME280;42298;53.638;9.876;2024-02-26T02:44:17;100938.53;;;2.65;100.00
56400;BME280;42298;53.638;9.876;2024-02-26T02:46:42;100942.84;;;2.66;100.00
56400;BME280;42298;53.638;9.876;2024-02-26T02:49:10;100937.78;;;2.63;100.00
56400;BME280;42298;53.638;9.876;2024-02-26T02:51:36;100944.75;;;2.64;100.00
56400;BME280;42298;53.638;9.876;2024-02-26T02:54:02;100947.06;;;2.68;100.00
56400;BME280;42298;53.638;9.876;2024-02-26T02:56:27;100959.88;;;2.73;100.00
56400;BME280;42298;53.638;9.876;2024-02-26T02:58:53;100953.81;;;2.73;100.00
56400;BME280;42298;53.638;9.876;2024-02-26T03:01:18;100946.84;;;2.72;100.00
56400;BME280;42298;53.638;9.876;2024-02-26T03:03:43;100947.91;;;2.69;100.00
56400;BME280;42298;53.638;9.876;2024-02-26T03:06:09;100941.16;;;2.65;100.00
56400;BME280;42298;53.638;9.876;2024-02-26T03:08:35;100940.81;;;2.57;100.00
56400;BME280;42298;53.638;9.876;2024-02-26T03:11:03;100935.03;;;2.52;100.00
56400;BME280;42298;53.638;9.876;2024-02-26T03:13:29;100932.22;;;2.55;100.00
56400;BME280;42298;53.638;9.876;2024-02-26T03:15:54;100926.63;;;2.46;100.00
56400;BME280;42298;53.638;9.876;2024-02-26T03:18:20;100931.56;;;2.51;100.00
56400;BME280;42298;53.638;9.876;2024-02-26T03:20:45;100924.53;;;2.52;100.00
56400;BME280;42298;53.638;9.876;2024-02-26T03:23:10;100937.16;;;2.59;100.00
56400;BME280;42298;53.638;9.876;2024-02-26T03:25:38;100936.94;;;2.62;100.00
56400;BME280;42298;53.638;9.876;2024-02-26T03:28:03;100947.56;;;2.61;100.00
56400;BME280;42298;53.638;9.876;2024-02-26T03:30:29;100940.31;;;2.52;100.00
56400;BME280;42298;53.638;9.876;2024-02-26T03:32:54;100938.50;;;2.39;100.00
56400;BME280;42298;53.638;9.876;2024-02-26T03:35:20;100946.19;;;2.42;100.00
56400;BME280;42298;53.638;9.876;2024-02-26T03:37:46;100940.09;;;2.42;100.00
56400;BME280;42298;53.638;9.876;2024-02-26T03:40:12;100942.41;;;2.46;100.00
56400;BME280;42298;53.638;9.876;2024-02-26T03:42:39;100945.03;;;2.46;100.00
56400;BME280;42298;53.638;9.876;2024-02-26T03:45:05;100950.81;;;2.52;100.00
56400;BME280;42298;53.638;9.876;2024-02-26T03:47:31;100957.53;;;2.43;100.00
56400;BME280;42298;53.638;9.876;2024-02-26T03:49:56;100965.13;;;2.35;100.00
56400;BME280;42298;53.638;9.876;2024-02-26T03:52:21;100956.56;;;2.31;100.00
56400;BME280;42298;53.638;9.876;2024-02-26T03:54:47;100952.78;;;2.22;100.00
56400;BME280;42298;53.638;9.876;2024-02-26T03:57:12;100963.59;;;2.18;100.00
56400;BME280;42298;53.638;9.876;2024-02-26T03:59:37;100959.69;;;2.11;100.00
56400;BME280;42298;53.638;9.876;2024-02-26T04:02:04;100960.00;;;2.06;100.00
56400;BME280;42298;53.638;9.876;2024-02-26T04:04:30;100954.00;;;2.04;100.00
56400;BME280;42298;53.638;9.876;2024-02-26T04:06:56;100965.16;;;2.20;100.00
56400;BME280;42298;53.638;9.876;2024-02-26T04:09:22;100984.00;;;2.27;100.00
56400;BME280;42298;53.638;9.876;2024-02-26T04:11:47;100983.78;;;2.30;100.00
56400;BME280;42298;53.638;9.876;2024-02-26T04:14:12;100978.97;;;2.24;100.00
56400;BME280;42298;53.638;9.876;2024-02-26T04:16:38;100991.69;;;2.30;100.00
56400;BME280;42298;53.638;9.876;2024-02-26T04:19:04;100993.69;;;2.26;100.00
56400;BME280;42298;53.638;9.876;2024-02-26T04:21:29;101002.94;;;2.32;100.00
56400;BME280;42298;53.638;9.876;2024-02-26T04:23:55;101003.97;;;2.30;100.00
56400;BME280;42298;53.638;9.876;2024-02-26T04:26:21;100998.50;;;2.20;100.00
56400;BME280;42298;53.638;9.876;2024-02-26T04:28:47;101001.00;;;2.09;100.00
56400;BME280;42298;53.638;9.876;2024-02-26T04:31:12;100997.34;;;1.97;100.00
56400;BME280;42298;53.638;9.876;2024-02-26T04:33:37;101005.97;;;1.99;100.00
56400;BME280;42298;53.638;9.876;2024-02-26T04:36:03;101000.41;;;1.91;100.00
56400;BME280;42298;53.638;9.876;2024-02-26T04:38:30;101016.69;;;1.96;100.00
56400;BME280;42298;53.638;9.876;2024-02-26T04:40:55;101017.53;;;1.96;100.00
56400;BME280;42298;53.638;9.876;2024-02-26T04:43:21;101022.19;;;2.05;100.00
56400;BME280;42298;53.638;9.876;2024-02-26T04:45:46;101019.47;;;2.07;100.00
56400;BME280;42298;53.638;9.876;2024-02-26T04:48:11;101012.94;;;2.00;100.00
56400;BME280;42298;53.638;9.876;2024-02-26T04:50:37;101025.94;;;2.01;100.00
56400;BME280;42298;53.638;9.876;2024-02-26T04:53:02;101018.38;;;1.97;100.00
56400;BME280;42298;53.638;9.876;2024-02-26T04:55:28;101036.38;;;2.03;100.00
56400;BME280;42298;53.638;9.876;2024-02-26T04:57:53;101044.69;;;2.10;100.00
56400;BME280;42298;53.638;9.876;2024-02-26T05:00:18;101037.56;;;2.12;100.00
56400;BME280;42298;53.638;9.876;2024-02-26T05:02:44;101042.91;;;2.10;100.00
56400;BME280;42298;53.638;9.876;2024-02-26T05:05:09;101045.09;;;2.03;100.00
56400;BME280;42298;53.638;9.876;2024-02-26T05:07:39;101034.03;;;1.98;100.00
56400;BME280;42298;53.638;9.876;2024-02-26T05:10:05;101047.09;;;2.00;100.00
56400;BME280;42298;53.638;9.876;2024-02-26T05:12:30;101049.59;;;2.01;100.00
56400;BME280;42298;53.638;9.876;2024-02-26T05:14:56;101044.19;;;1.90;100.00
56400;BME280;42298;53.638;9.876;2024-02-26T05:17:21;101048.31;;;1.94;100.00
56400;BME280;42298;53.638;9.876;2024-02-26T05:19:46;101043.44;;;1.88;100.00
56400;BME280;42298;53.638;9.876;2024-02-26T05:22:12;101042.13;;;1.95;100.00
56400;BME280;42298;53.638;9.876;2024-02-26T05:24:38;101046.97;;;2.01;100.00
56400;BME280;42298;53.638;9.876;2024-02-26T05:27:04;101043.81;;;1.96;100.00
56400;BME280;42298;53.638;9.876;2024-02-26T05:29:29;101062.72;;;2.01;100.00
56400;BME280;42298;53.638;9.876;2024-02-26T05:31:54;101059.38;;;1.99;100.00
56400;BME280;42298;53.638;9.876;2024-02-26T05:34:20;101062.09;;;1.98;100.00
56400;BME280;42298;53.638;9.876;2024-02-26T05:36:45;101067.53;;;1.95;100.00
56400;BME280;42298;53.638;9.876;2024-02-26T05:39:10;101069.78;;;2.01;100.00
56400;BME280;42298;53.638;9.876;2024-02-26T05:41:37;101080.28;;;2.01;100.00
56400;BME280;42298;53.638;9.876;2024-02-26T05:44:02;101075.25;;;1.98;100.00
56400;BME280;42298;53.638;9.876;2024-02-26T05:46:28;101083.13;;;1.98;100.00
56400;BME280;42298;53.638;9.876;2024-02-26T05:48:54;101098.22;;;1.94;100.00
56400;BME280;42298;53.638;9.876;2024-02-26T05:51:19;101094.22;;;1.89;100.00
56400;BME280;42298;53.638;9.876;2024-02-26T05:53:45;101102.94;;;1.89;100.00
56400;BME280;42298;53.638;9.876;2024-02-26T05:56:12;101093.56;;;1.85;100.00
56400;BME280;42298;53.638;9.876;2024-02-26T05:58:37;101094.31;;;1.87;100.00
56400;BME280;42298;53.638;9.876;2024-02-26T06:01:03;101118.78;;;2.02;100.00
56400;BME280;42298;53.638;9.876;2024-02-26T06:03:29;101107.81;;;1.95;100.00
56400;BME280;42298;53.638;9.876;2024-02-26T06:05:54;101123.38;;;1.98;100.00
56400;BME280;42298;53.638;9.876;2024-02-26T06:08:20;101123.06;;;2.03;100.00
56400;BME280;42298;53.638;9.876;2024-02-26T06:10:45;101130.31;;;1.99;100.00
56400;BME280;42298;53.638;9.876;2024-02-26T06:13:11;101153.09;;;2.13;100.00
56400;BME280;42298;53.638;9.876;2024-02-26T06:15:36;101158.25;;;2.15;100.00
56400;BME280;42298;53.638;9.876;2024-02-26T06:18:02;101155.53;;;2.16;100.00
56400;BME280;42298;53.638;9.876;2024-02-26T06:20:27;101160.63;;;2.19;100.00
56400;BME280;42298;53.638;9.876;2024-02-26T06:22:53;101170.72;;;2.25;100.00
56400;BME280;42298;53.638;9.876;2024-02-26T06:25:18;101182.81;;;2.28;100.00
56400;BME280;42298;53.638;9.876;2024-02-26T06:27:43;101191.19;;;2.35;100.00
56400;BME280;42298;53.638;9.876;2024-02-26T06:30:09;101195.59;;;2.34;100.00
56400;BME280;42298;53.638;9.876;2024-02-26T06:32:39;101209.97;;;2.28;100.00
56400;BME280;42298;53.638;9.876;2024-02-26T06:35:05;101210.06;;;2.27;100.00
56400;BME280;42298;53.638;9.876;2024-02-26T06:37:33;101222.06;;;2.31;100.00
56400;BME280;42298;53.638;9.876;2024-02-26T06:39:59;101231.56;;;2.34;100.00
56400;BME280;42298;53.638;9.876;2024-02-26T06:42:24;101236.72;;;2.35;100.00
56400;BME280;42298;53.638;9.876;2024-02-26T06:44:50;101238.59;;;2.33;100.00
56400;BME280;42298;53.638;9.876;2024-02-26T06:47:15;101253.41;;;2.34;100.00
56400;BME280;42298;53.638;9.876;2024-02-26T06:49:40;101244.97;;;2.29;100.00
56400;BME280;42298;53.638;9.876;2024-02-26T06:52:06;101265.53;;;2.37;100.00
56400;BME280;42298;53.638;9.876;2024-02-26T06:54:33;101281.03;;;2.41;100.00
56400;BME280;42298;53.638;9.876;2024-02-26T06:56:59;101270.91;;;2.35;100.00
56400;BME280;42298;53.638;9.876;2024-02-26T06:59:24;101278.59;;;2.38;100.00
56400;BME280;42298;53.638;9.876;2024-02-26T07:01:50;101291.28;;;2.46;100.00
56400;BME280;42298;53.638;9.876;2024-02-26T07:04:15;101304.41;;;2.46;100.00
56400;BME280;42298;53.638;9.876;2024-02-26T07:06:40;101312.94;;;2.49;100.00
56400;BME280;42298;53.638;9.876;2024-02-26T07:09:06;101317.28;;;2.51;100.00
56400;BME280;42298;53.638;9.876;2024-02-26T07:11:32;101321.50;;;2.53;100.00
56400;BME280;42298;53.638;9.876;2024-02-26T07:13:57;101338.13;;;2.54;100.00
56400;BME280;42298;53.638;9.876;2024-02-26T07:16:22;101349.03;;;2.62;100.00
56400;BME280;42298;53.638;9.876;2024-02-26T07:18:48;101357.47;;;2.67;100.00
56400;BME280;42298;53.638;9.876;2024-02-26T07:21:13;101357.47;;;2.67;100.00
56400;BME280;42298;53.638;9.876;2024-02-26T07:23:39;101375.50;;;2.73;100.00
56400;BME280;42298;53.638;9.876;2024-02-26T07:26:05;101381.31;;;2.78;100.00
56400;BME280;42298;53.638;9.876;2024-02-26T07:28:31;101389.78;;;2.83;100.00
56400;BME280;42298;53.638;9.876;2024-02-26T07:30:56;101395.03;;;2.83;100.00
56400;BME280;42298;53.638;9.876;2024-02-26T07:33:22;101400.88;;;2.88;100.00
56400;BME280;42298;53.638;9.876;2024-02-26T07:35:47;101408.41;;;2.95;100.00
56400;BME280;42298;53.638;9.876;2024-02-26T07:38:13;101403.78;;;2.84;100.00
56400;BME280;42298;53.638;9.876;2024-02-26T07:40:39;101425.94;;;2.94;100.00
56400;BME280;42298;53.638;9.876;2024-02-26T07:43:04;101433.09;;;2.92;100.00
56400;BME280;42298;53.638;9.876;2024-02-26T07:45:30;101448.81;;;3.08;100.00
56400;BME280;42298;53.638;9.876;2024-02-26T07:47:55;101447.78;;;3.10;100.00
56400;BME280;42298;53.638;9.876;2024-02-26T07:50:21;101452.06;;;3.11;100.00
56400;BME280;42298;53.638;9.876;2024-02-26T07:52:47;101455.94;;;3.06;100.00
56400;BME280;42298;53.638;9.876;2024-02-26T07:55:13;101462.06;;;3.06;100.00
56400;BME280;42298;53.638;9.876;2024-02-26T07:57:41;101488.00;;;3.13;100.00
56400;BME280;42298;53.638;9.876;2024-02-26T08:00:07;101492.22;;;3.15;100.00
56400;BME280;42298;53.638;9.876;2024-02-26T08:02:34;101508.03;;;3.15;100.00
56400;BME280;42298;53.638;9.876;2024-02-26T08:05:00;101513.94;;;3.19;100.00
56400;BME280;42298;53.638;9.876;2024-02-26T08:07:25;101526.81;;;3.38;100.00
56400;BME280;42298;53.638;9.876;2024-02-26T08:09:51;101537.28;;;3.39;100.00
56400;BME280;42298;53.638;9.876;2024-02-26T08:12:17;101540.28;;;3.33;100.00
56400;BME280;42298;53.638;9.876;2024-02-26T08:14:43;101550.25;;;3.28;100.00
56400;BME280;42298;53.638;9.876;2024-02-26T08:17:09;101561.16;;;3.36;100.00
56400;BME280;42298;53.638;9.876;2024-02-26T08:19:35;101560.50;;;3.33;100.00
56400;BME280;42298;53.638;9.876;2024-02-26T08:22:01;101588.72;;;3.30;100.00
56400;BME280;42298;53.638;9.876;2024-02-26T08:24:26;101589.34;;;3.20;100.00
56400;BME280;42298;53.638;9.876;2024-02-26T08:26:52;101584.38;;;3.15;100.00
56400;BME280;42298;53.638;9.876;2024-02-26T08:29:18;101602.53;;;3.34;100.00
56400;BME280;42298;53.638;9.876;2024-02-26T08:31:43;101623.06;;;3.43;100.00
56400;BME280;42298;53.638;9.876;2024-02-26T08:34:09;101632.03;;;3.25;100.00
56400;BME280;42298;53.638;9.876;2024-02-26T08:36:34;101647.75;;;3.26;100.00
56400;BME280;42298;53.638;9.876;2024-02-26T08:39:00;101653.31;;;3.22;100.00
56400;BME280;42298;53.638;9.876;2024-02-26T08:41:26;101657.13;;;3.16;100.00
56400;BME280;42298;53.638;9.876;2024-02-26T08:43:51;101682.06;;;3.25;100.00
56400;BME280;42298;53.638;9.876;2024-02-26T08:46:17;101714.50;;;3.25;100.00
56400;BME280;42298;53.638;9.876;2024-02-26T08:48:43;101725.22;;;3.22;100.00
56400;BME280;42298;53.638;9.876;2024-02-26T08:51:09;101755.38;;;3.33;100.00
56400;BME280;42298;53.638;9.876;2024-02-26T08:53:35;101780.59;;;3.37;100.00
56400;BME280;42298;53.638;9.876;2024-02-26T08:56:01;101783.66;;;3.29;100.00
56400;BME280;42298;53.638;9.876;2024-02-26T08:58:28;101821.50;;;3.42;100.00
56400;BME280;42298;53.638;9.876;2024-02-26T09:00:54;101850.47;;;3.58;100.00
56400;BME280;42298;53.638;9.876;2024-02-26T09:03:20;101871.94;;;3.66;100.00
56400;BME280;42298;53.638;9.876;2024-02-26T09:05:45;101885.31;;;3.63;100.00
56400;BME280;42298;53.638;9.876;2024-02-26T09:08:11;101901.88;;;3.65;100.00
56400;BME280;42298;53.638;9.876;2024-02-26T09:10:38;101915.72;;;3.69;100.00
56400;BME280;42298;53.638;9.876;2024-02-26T09:13:04;101949.94;;;3.85;100.00
56400;BME280;42298;53.638;9.876;2024-02-26T09:15:29;101974.09;;;3.93;100.00
56400;BME280;42298;53.638;9.876;2024-02-26T09:17:55;101979.88;;;3.84;100.00
56400;BME280;42298;53.638;9.876;2024-02-26T09:20:21;102010.66;;;3.99;100.00
56400;BME280;42298;53.638;9.876;2024-02-26T09:22:48;102025.94;;;4.08;100.00
56400;BME280;42298;53.638;9.876;2024-02-26T09:25:14;102050.00;;;4.18;100.00
56400;BME280;42298;53.638;9.876;2024-02-26T09:27:41;102069.72;;;4.27;100.00
56400;BME280;42298;53.638;9.876;2024-02-26T09:30:09;102063.88;;;4.22;100.00
56400;BME280;42298;53.638;9.876;2024-02-26T09:32:35;102086.41;;;4.27;100.00
56400;BME280;42298;53.638;9.876;2024-02-26T09:35:01;102104.94;;;4.42;100.00
56400;BME280;42298;53.638;9.876;2024-02-26T09:37:27;102123.38;;;4.57;100.00
56400;BME280;42298;53.638;9.876;2024-02-26T09:39:52;102143.19;;;4.65;100.00
56400;BME280;42298;53.638;9.876;2024-02-26T09:42:18;102141.69;;;4.61;100.00
56400;BME280;42298;53.638;9.876;2024-02-26T09:44:45;102141.44;;;4.49;100.00
56400;BME280;42298;53.638;9.876;2024-02-26T09:47:14;102159.41;;;4.59;100.00
56400;BME280;42298;53.638;9.876;2024-02-26T09:49:46;102165.94;;;4.51;100.00
56400;BME280;42298;53.638;9.876;2024-02-26T09:52:14;102174.28;;;4.44;100.00
56400;BME280;42298;53.638;9.876;2024-02-26T09:54:41;102186.28;;;4.49;100.00
56400;BME280;42298;53.638;9.876;2024-02-26T09:57:09;102206.28;;;4.53;100.00
56400;BME280;42298;53.638;9.876;2024-02-26T09:59:41;102220.34;;;4.54;100.00
56400;BME280;42298;53.638;9.876;2024-02-26T10:02:14;102229.13;;;4.54;100.00
56400;BME280;42298;53.638;9.876;2024-02-26T10:04:40;102244.34;;;4.65;100.00
56400;BME280;42298;53.638;9.876;2024-02-26T10:07:11;102263.25;;;4.57;100.00
56400;BME280;42298;53.638;9.876;2024-02-26T10:09:36;102268.25;;;4.62;100.00
56400;BME280;42298;53.638;9.876;2024-02-26T10:12:03;102279.34;;;4.69;100.00
56400;BME280;42298;53.638;9.876;2024-02-26T10:14:30;102284.28;;;4.75;100.00
56400;BME280;42298;53.638;9.876;2024-02-26T10:16:56;102301.56;;;4.81;100.00
56400;BME280;42298;53.638;9.876;2024-02-26T10:19:25;102302.50;;;4.80;100.00
56400;BME280;42298;53.638;9.876;2024-02-26T10:21:56;102317.50;;;4.79;100.00
56400;BME280;42298;53.638;9.876;2024-02-26T10:24:22;102314.00;;;4.79;100.00
56400;BME280;42298;53.638;9.876;2024-02-26T10:26:48;102318.94;;;4.85;100.00
56400;BME280;42298;53.638;9.876;2024-02-26T10:29:14;102322.84;;;4.93;100.00
56400;BME280;42298;53.638;9.876;2024-02-26T10:31:42;102336.31;;;5.05;100.00
56400;BME280;42298;53.638;9.876;2024-02-26T10:34:08;102336.16;;;5.08;100.00
56400;BME280;42298;53.638;9.876;2024-02-26T10:36:34;102340.66;;;5.06;100.00
56400;BME280;42298;53.638;9.876;2024-02-26T10:39:02;102323.09;;;5.05;100.00
56400;BME280;42298;53.638;9.876;2024-02-26T10:41:28;102335.13;;;5.10;100.00
56400;BME280;42298;53.638;9.876;2024-02-26T10:43:54;102344.31;;;5.19;100.00
56400;BME280;42298;53.638;9.876;2024-02-26T10:46:20;102352.81;;;5.24;100.00
56400;BME280;42298;53.638;9.876;2024-02-26T10:48:50;102335.94;;;5.27;100.00
56400;BME280;42298;53.638;9.876;2024-02-26T10:51:21;102364.06;;;5.44;100.00
56400;BME280;42298;53.638;9.876;2024-02-26T10:53:51;102379.13;;;5.57;100.00
56400;BME280;42298;53.638;9.876;2024-02-26T10:56:27;102377.75;;;5.66;100.00
56400;BME280;42298;53.638;9.876;2024-02-26T10:58:54;102374.03;;;5.85;100.00
56400;BME280;42298;53.638;9.876;2024-02-26T11:01:21;102383.06;;;5.96;100.00
56400;BME280;42298;53.638;9.876;2024-02-26T11:03:48;102384.69;;;5.99;100.00
56400;BME280;42298;53.638;9.876;2024-02-26T11:06:16;102369.94;;;5.95;100.00
56400;BME280;42298;53.638;9.876;2024-02-26T11:08:43;102364.56;;;5.96;100.00
56400;BME280;42298;53.638;9.876;2024-02-26T11:11:08;102344.25;;;5.97;100.00
56400;BME280;42298;53.638;9.876;2024-02-26T11:13:36;102337.63;;;6.04;100.00
56400;BME280;42298;53.638;9.876;2024-02-26T11:16:05;102333.78;;;6.10;100.00
56400;BME280;42298;53.638;9.876;2024-02-26T11:18:32;102326.25;;;6.18;100.00
56400;BME280;42298;53.638;9.876;2024-02-26T11:20:59;102299.13;;;6.14;100.00
56400;BME280;42298;53.638;9.876;2024-02-26T11:23:25;102312.31;;;6.29;100.00
56400;BME280;42298;53.638;9.876;2024-02-26T11:25:52;102289.66;;;6.39;100.00
56400;BME280;42298;53.638;9.876;2024-02-26T11:28:19;102291.72;;;6.48;100.00
56400;BME280;42298;53.638;9.876;2024-02-26T11:30:47;102277.44;;;6.51;100.00
56400;BME280;42298;53.638;9.876;2024-02-26T11:33:15;102273.19;;;6.62;100.00
56400;BME280;42298;53.638;9.876;2024-02-26T11:35:41;102260.59;;;6.66;100.00
56400;BME280;42298;53.638;9.876;2024-02-26T11:38:07;102217.59;;;6.48;100.00
56400;BME280;42298;53.638;9.876;2024-02-26T11:40:37;102233.81;;;6.71;100.00
56400;BME280;42298;53.638;9.876;2024-02-26T11:43:05;102218.50;;;6.76;100.00
56400;BME280;42298;53.638;9.876;2024-02-26T11:48:11;102186.16;;;6.71;100.00
56400;BME280;42298;53.638;9.876;2024-02-26T11:50:39;102183.25;;;6.88;100.00
56400;BME280;42298;53.638;9.876;2024-02-26T11:53:24;102178.94;;;7.00;100.00
56400;BME280;42298;53.638;9.876;2024-02-26T11:56:12;102176.31;;;7.13;100.00
56400;BME280;42298;53.638;9.876;2024-02-26T11:58:39;102143.53;;;7.01;100.00
56400;BME280;42298;53.638;9.876;2024-02-26T12:01:06;102123.06;;;6.90;100.00
56400;BME280;42298;53.638;9.876;2024-02-26T12:03:31;102108.13;;;6.76;100.00
56400;BME280;42298;53.638;9.876;2024-02-26T12:05:57;102081.06;;;6.58;100.00
56400;BME280;42298;53.638;9.876;2024-02-26T12:08:23;102069.81;;;6.55;100.00
56400;BME280;42298;53.638;9.876;2024-02-26T12:10:50;102064.88;;;6.63;100.00
56400;BME280;42298;53.638;9.876;2024-02-26T12:13:16;102046.63;;;6.46;100.00
56400;BME280;42298;53.638;9.876;2024-02-26T12:15:44;102031.78;;;6.43;100.00
56400;BME280;42298;53.638;9.876;2024-02-26T12:18:15;102045.38;;;6.51;100.00
56400;BME280;42298;53.638;9.876;2024-02-26T12:20:41;102036.56;;;6.51;100.00
56400;BME280;42298;53.638;9.876;2024-02-26T12:23:06;102010.41;;;6.46;100.00
56400;BME280;42298;53.638;9.876;2024-02-26T12:25:32;102031.28;;;6.63;100.00
56400;BME280;42298;53.638;9.876;2024-02-26T12:27:59;102019.22;;;6.59;100.00
56400;BME280;42298;53.638;9.876;2024-02-26T12:30:25;102019.97;;;6.49;100.00
56400;BME280;42298;53.638;9.876;2024-02-26T12:32:52;102007.22;;;6.41;100.00
56400;BME280;42298;53.638;9.876;2024-02-26T12:35:22;102004.19;;;6.47;100.00
56400;BME280;42298;53.638;9.876;2024-02-26T12:37:47;102019.22;;;6.59;100.00
56400;BME280;42298;53.638;9.876;2024-02-26T12:40:13;102030.16;;;6.68;100.00
56400;BME280;42298;53.638;9.876;2024-02-26T12:42:39;102009.81;;;6.55;100.00
56400;BME280;42298;53.638;9.876;2024-02-26T12:45:10;102017.97;;;6.65;100.00
56400;BME280;42298;53.638;9.876;2024-02-26T12:47:40;102017.88;;;6.67;100.00